createdAt,value
2019-05-16T00:02:21.604Z,100560.92
2019-05-16T00:07:25.069Z,100557.35
2019-05-16T00:12:29.198Z,100556.56
2019-05-16T00:17:32.779Z,100552.21
2019-05-16T00:22:36.244Z,100553.59
2019-05-16T00:27:39.707Z,100535.36
2019-05-16T00:32:43.171Z,100527.66
2019-05-16T00:37:48.379Z,100522.70
2019-05-16T00:42:52.137Z,100519.73
2019-05-16T00:47:55.599Z,100514.37
2019-05-16T00:52:59.284Z,100502.28
2019-05-16T00:58:04.196Z,100498.91
2019-05-16T01:03:08.156Z,100486.41
2019-05-16T01:08:11.928Z,100480.67
2019-05-16T01:13:15.385Z,100477.10
2019-05-16T01:18:18.964Z,100473.53
2019-05-16T01:23:22.381Z,100469.38
2019-05-16T01:28:25.840Z,100463.22
2019-05-16T01:33:29.303Z,100464.41
2019-05-16T01:38:32.771Z,100462.84
2019-05-16T01:43:37.703Z,100457.29
2019-05-16T01:48:41.268Z,100455.90
2019-05-16T01:53:44.736Z,100445.99
2019-05-16T01:58:49.126Z,100441.83
2019-05-16T02:03:52.891Z,100443.81
2019-05-16T02:08:57.957Z,100439.05
2019-05-16T02:14:01.514Z,100436.87
2019-05-16T02:19:05.045Z,100428.54
2019-05-16T02:24:08.970Z,100429.77
2019-05-16T02:29:13.729Z,100419.87
2019-05-16T02:34:17.396Z,100421.44
2019-05-16T02:39:21.333Z,100408.94
2019-05-16T02:44:25.062Z,100403.02
2019-05-16T02:49:30.656Z,100399.04
2019-05-16T02:54:33.781Z,100403.20
2019-05-16T02:59:37.264Z,100397.47
2019-05-16T03:04:44.100Z,100384.97
2019-05-16T03:09:46.660Z,100378.03
2019-05-16T03:14:54.473Z,100368.72
2019-05-16T03:20:01.461Z,100365.95
2019-05-16T03:25:04.897Z,100359.80
2019-05-16T03:30:14.423Z,100356.23
2019-05-16T03:35:16.045Z,100341.73
2019-05-16T03:40:24.733Z,100320.73
2019-05-16T03:45:31.454Z,100321.52
2019-05-16T03:50:33.381Z,100315.17
2019-05-16T03:55:36.833Z,100312.40
2019-05-16T04:00:53.287Z,100308.23
2019-05-16T04:05:56.911Z,100306.24
2019-05-16T04:11:01.355Z,100309.44
2019-05-16T04:16:05.187Z,100307.11
2019-05-16T04:21:11.742Z,100302.76
2019-05-16T04:26:13.833Z,100300.58
2019-05-16T04:31:17.303Z,100290.08
2019-05-16T04:36:21.408Z,100287.30
2019-05-16T04:41:25.066Z,100286.52
2019-05-16T04:46:31.295Z,100279.39
2019-05-16T04:51:33.735Z,100272.87
2019-05-16T04:56:37.191Z,100262.55
2019-05-16T05:01:41.331Z,100263.33
2019-05-16T05:06:44.886Z,100264.72
2019-05-16T05:11:51.685Z,100261.77
2019-05-16T05:16:53.530Z,100256.03
2019-05-16T05:21:56.988Z,100254.45
2019-05-16T05:27:00.440Z,100259.25
2019-05-16T05:32:05.381Z,100255.09
2019-05-16T05:37:12.601Z,100250.14
2019-05-16T05:42:14.308Z,100252.73
2019-05-16T05:47:20.031Z,100254.12
2019-05-16T05:52:22.956Z,100251.16
2019-05-16T05:57:26.430Z,100248.38
2019-05-16T06:02:30.954Z,100247.59
2019-05-16T06:07:34.574Z,100249.59
2019-05-16T06:12:40.553Z,100252.55
2019-05-16T06:17:43.221Z,100246.99
2019-05-16T06:22:46.678Z,100244.22
2019-05-16T06:27:51.201Z,100232.92
2019-05-16T06:32:54.775Z,100225.80
2019-05-16T06:38:00.480Z,100210.95
2019-05-16T06:43:03.448Z,100207.58
2019-05-16T06:48:07.128Z,100197.44
2019-05-16T06:53:10.596Z,100198.64
2019-05-16T06:58:14.046Z,100195.88
2019-05-16T07:03:20.110Z,100192.27
2019-05-16T07:08:22.706Z,100189.63
2019-05-16T07:13:26.160Z,100207.55
2019-05-16T07:18:30.951Z,100201.25
2019-05-16T07:23:34.687Z,100198.02
2019-05-16T07:28:40.438Z,100192.20
2019-05-16T07:33:43.356Z,100187.26
2019-05-16T07:38:46.871Z,100197.28
2019-05-16T07:43:50.760Z,100185.02
2019-05-16T07:48:54.342Z,100171.00
2019-05-16T07:53:59.706Z,100176.41
2019-05-16T07:59:02.973Z,100172.33
2019-05-16T08:04:06.435Z,100165.89
2019-05-16T08:09:12.744Z,100157.89
2019-05-16T08:14:15.082Z,100153.05
2019-05-16T08:19:20.021Z,100156.94
2019-05-16T08:24:23.734Z,100154.89
2019-05-16T08:29:27.198Z,100155.63
2019-05-16T08:34:32.231Z,100147.84
2019-05-16T08:39:35.899Z,100159.70
2019-05-16T08:49:44.548Z,100164.34
2019-05-16T08:54:50.892Z,100156.17
2019-05-16T08:59:53.250Z,100139.26
2019-05-16T09:04:56.663Z,100148.10
2019-05-16T09:10:00.515Z,100147.50
2019-05-16T09:10:29.684Z,100163.97
2019-05-16T09:15:07.694Z,100139.55
2019-05-16T09:20:10.900Z,100142.69
2019-05-16T09:25:18.187Z,100136.88
2019-05-16T09:30:20.848Z,100123.20
2019-05-16T09:35:24.301Z,100115.06
2019-05-16T09:40:28.010Z,100110.84
2019-05-16T09:45:31.597Z,100103.05
2019-05-16T09:50:37.747Z,100105.32
2019-05-16T09:55:40.795Z,100104.48
2019-05-16T10:00:47.179Z,100100.92
2019-05-16T10:05:49.451Z,100096.86
2019-05-16T10:10:52.919Z,100095.59
2019-05-16T10:15:56.382Z,100089.62
2019-05-16T10:20:59.848Z,100094.13
2019-05-16T10:26:03.308Z,100095.88
2019-05-16T10:31:07.074Z,100085.75
2019-05-16T10:36:10.755Z,100081.16
2019-05-16T10:41:14.266Z,100083.67
2019-05-16T10:46:17.979Z,100082.28
2019-05-16T10:51:23.924Z,100081.86
2019-05-16T10:56:26.634Z,100071.91
2019-05-16T11:01:31.267Z,100071.91
2019-05-16T11:06:37.092Z,100080.56
2019-05-16T11:11:40.217Z,100074.27
2019-05-16T11:16:43.683Z,100071.22
2019-05-16T11:21:47.135Z,100066.45
2019-05-16T11:26:50.626Z,100057.52
2019-05-16T11:31:54.067Z,100050.16
2019-05-16T11:36:57.520Z,100043.82
2019-05-16T11:42:00.984Z,100047.56
2019-05-16T11:47:04.457Z,100049.12
2019-05-16T11:52:07.914Z,100044.33
2019-05-16T11:57:11.394Z,100046.08
2019-05-16T12:02:17.336Z,100032.02
2019-05-16T12:07:20.023Z,100036.79
2019-05-16T12:12:23.482Z,100036.55
2019-05-16T12:17:27.963Z,100024.84
2019-05-16T12:22:31.610Z,100033.56
2019-05-16T12:27:41.685Z,100027.41
2019-05-16T12:32:40.318Z,100030.96
2019-05-16T12:37:43.813Z,100029.12
2019-05-16T12:42:47.391Z,100019.25
2019-05-16T12:47:50.839Z,100021.25
2019-05-16T12:52:56.799Z,100028.70
2019-05-16T12:58:12.696Z,100027.13
2019-05-16T13:03:06.970Z,100026.34
2019-05-16T13:08:09.847Z,100030.51
2019-05-16T13:13:13.314Z,100022.03
2019-05-16T13:18:17.161Z,100023.57
2019-05-16T13:23:20.685Z,100015.00
2019-05-16T13:28:24.185Z,100019.16
2019-05-16T13:33:27.611Z,100014.81
2019-05-16T13:38:31.072Z,100012.64
2019-05-16T13:43:34.517Z,100004.92
2019-05-16T13:48:38.026Z,100007.70
2019-05-16T13:53:41.466Z,100009.09
2019-05-16T13:58:46.998Z,100005.10
2019-05-16T14:03:50.143Z,99999.73
2019-05-16T14:08:53.595Z,99997.31
2019-05-16T14:13:57.122Z,99999.81
2019-05-16T14:19:00.592Z,100001.31
2019-05-16T14:24:04.122Z,99990.28
2019-05-16T14:29:08.154Z,99997.48
2019-05-16T14:34:11.707Z,99999.05
2019-05-16T14:39:19.498Z,99981.11
2019-05-16T14:44:21.093Z,99982.50
2019-05-16T14:49:24.556Z,99991.87
2019-05-16T14:54:28.006Z,99991.16
2019-05-16T14:59:31.484Z,99985.53
2019-05-16T15:04:37.414Z,99983.53
2019-05-16T15:09:40.125Z,99989.52
2019-05-16T15:14:43.588Z,99990.73
2019-05-16T15:19:47.046Z,99984.99
2019-05-16T15:24:50.495Z,99983.18
2019-05-16T15:29:53.954Z,99983.96
2019-05-16T15:34:57.437Z,99976.77
2019-05-16T15:40:00.895Z,99979.12
2019-05-16T15:45:06.973Z,99972.93
2019-05-16T15:50:14.114Z,99974.17
2019-05-16T15:55:18.434Z,99977.09
2019-05-16T16:00:27.666Z,99971.72
2019-05-16T16:05:31.122Z,99961.39
2019-05-16T16:10:37.920Z,99965.56
2019-05-16T16:15:50.604Z,99961.22
2019-05-16T16:20:47.805Z,99951.06
2019-05-16T16:25:51.893Z,99956.37
2019-05-16T16:30:56.939Z,99953.42
2019-05-16T16:36:00.607Z,99965.31
2019-05-16T16:41:04.241Z,99957.23
2019-05-16T16:46:12.874Z,99965.31
2019-05-16T16:51:12.897Z,99964.88
2019-05-16T16:56:16.943Z,99967.05
2019-05-16T17:01:20.424Z,99973.21
2019-05-16T17:06:26.886Z,99976.31
2019-05-16T17:11:29.081Z,99978.16
2019-05-16T17:16:32.558Z,99970.44
2019-05-16T17:21:36.799Z,99975.98
2019-05-16T17:26:40.345Z,99977.81
2019-05-16T17:31:43.882Z,99979.02
2019-05-16T17:36:47.367Z,99975.28
2019-05-16T17:41:54.770Z,99980.23
2019-05-16T17:46:57.559Z,99983.61
2019-05-16T17:52:01.259Z,99974.17
2019-05-16T17:57:07.243Z,99968.33
2019-05-16T18:02:09.981Z,99979.12
2019-05-16T18:07:13.447Z,99979.37
2019-05-16T18:12:17.567Z,99983.53
2019-05-16T18:17:21.142Z,99982.14
2019-05-16T18:22:24.595Z,99979.97
2019-05-16T18:27:28.051Z,99975.63
2019-05-16T18:32:31.499Z,99979.01
2019-05-16T18:37:34.983Z,99977.02
2019-05-16T18:42:38.435Z,99976.84
2019-05-16T18:47:41.908Z,99983.78
2019-05-16T18:52:47.126Z,99983.78
2019-05-16T18:57:50.753Z,99987.16
2019-05-16T19:02:56.416Z,99988.55
2019-05-16T19:07:59.550Z,99982.39
2019-05-16T19:13:03.145Z,99980.22
2019-05-16T19:18:07.137Z,99980.22
2019-05-16T19:23:10.599Z,99975.88
2019-05-16T19:28:14.080Z,99991.00
2019-05-16T19:33:17.703Z,99991.00
2019-05-16T19:38:21.190Z,99988.83
2019-05-16T19:43:26.496Z,99989.44
2019-05-16T19:48:29.861Z,99988.83
2019-05-16T19:53:33.330Z,99997.77
2019-05-16T19:58:37.348Z,99982.31
2019-05-16T20:03:40.952Z,99987.27
2019-05-16T20:08:44.457Z,99981.53
2019-05-16T20:13:47.945Z,99981.53
2019-05-16T20:18:51.434Z,99973.38
2019-05-16T20:23:56.788Z,99966.26
2019-05-16T20:29:00.113Z,99968.25
2019-05-16T20:34:03.584Z,99960.70
2019-05-16T20:39:08.536Z,99960.53
2019-05-16T20:44:12.113Z,99960.70
2019-05-16T20:49:16.795Z,99964.09
2019-05-16T20:54:20.415Z,99968.25
2019-05-16T20:59:23.894Z,99969.64
2019-05-16T21:04:27.382Z,99965.91
2019-05-16T21:09:30.857Z,99961.73
2019-05-16T21:14:34.330Z,99960.95
2019-05-16T21:19:39.195Z,99955.41
2019-05-16T21:24:42.957Z,99942.13
2019-05-16T21:29:47.150Z,99946.47
2019-05-16T21:34:50.675Z,99950.45
2019-05-16T21:39:54.151Z,99944.75
2019-05-16T21:44:57.621Z,99945.50
2019-05-16T21:50:01.107Z,99940.59
2019-05-16T21:55:07.537Z,99951.69
2019-05-16T22:00:17.304Z,99954.29
2019-05-16T22:05:20.781Z,99941.97
2019-05-16T22:10:26.446Z,99934.25
2019-05-16T22:15:29.449Z,99932.86
2019-05-16T22:20:33.087Z,99933.47
2019-05-16T22:25:36.634Z,99932.86
2019-05-16T22:30:40.114Z,99932.08
2019-05-16T22:35:43.583Z,99931.30
2019-05-16T22:40:47.053Z,99928.52
2019-05-16T22:45:50.526Z,99923.57
2019-05-16T22:50:56.348Z,99924.78
2019-05-16T22:55:59.195Z,99925.74
2019-05-16T23:01:03.581Z,99920.01
2019-05-16T23:06:07.781Z,99920.44
2019-05-16T23:11:11.407Z,99918.88
2019-05-16T23:16:17.005Z,99915.31
2019-05-16T23:21:20.148Z,99910.82
2019-05-16T23:26:23.625Z,99913.59
2019-05-16T23:31:29.210Z,99907.27
2019-05-16T23:36:34.200Z,99908.48
2019-05-16T23:41:37.708Z,99897.37
2019-05-16T23:46:41.173Z,99895.20
2019-05-16T23:51:44.643Z,99890.86
2019-05-16T23:56:48.111Z,99890.08
